createdAt,value
2023-05-14T00:00:53.363Z,11.5261
2023-05-14T00:01:54.363Z,11.4612
2023-05-14T00:02:55.547Z,11.4559
2023-05-14T00:03:56.522Z,11.0846
2023-05-14T00:04:57.548Z,11.4538
2023-05-14T00:05:58.514Z,11.6381
2023-05-14T00:06:59.546Z,11.9617
2023-05-14T00:08:00.577Z,11.6281
2023-05-14T00:09:01.601Z,11.2113
2023-05-14T00:10:02.710Z,11.7906
2023-05-14T00:11:03.711Z,11.2637
2023-05-14T00:12:04.722Z,11.3971
2023-05-14T00:13:05.755Z,11.4246
2023-05-14T00:14:06.804Z,11.8762
2023-05-14T00:15:07.883Z,11.5739
2023-05-14T00:16:08.982Z,11.2867
2023-05-14T00:17:09.904Z,11.5717
2023-05-14T00:18:10.981Z,11.1894
2023-05-14T00:19:12.044Z,11.9136
2023-05-14T00:20:13.068Z,11.5095
2023-05-14T00:21:14.073Z,11.5982
2023-05-14T00:22:15.101Z,11.6123
2023-05-14T00:23:16.121Z,11.7005
2023-05-14T00:24:17.159Z,12.2634
2023-05-14T00:25:18.208Z,12.2841
2023-05-14T00:26:19.272Z,11.5008
2023-05-14T00:27:20.248Z,11.3753
2023-05-14T00:28:21.273Z,11.2617
2023-05-14T00:29:22.315Z,11.0505
2023-05-14T00:30:23.592Z,11.3339
2023-05-14T00:31:24.457Z,11.7383
2023-05-14T00:32:25.583Z,10.9510
2023-05-14T00:33:26.500Z,11.4779
2023-05-14T00:34:27.547Z,10.7733
2023-05-14T00:35:28.599Z,10.7235
2023-05-14T00:36:29.661Z,10.7787
2023-05-14T00:37:30.638Z,10.7879
2023-05-14T00:38:31.677Z,10.7131
2023-05-14T00:39:32.711Z,10.6316
2023-05-14T00:40:33.782Z,11.3101
2023-05-14T00:41:34.883Z,11.3558
2023-05-14T00:42:35.895Z,11.3475
2023-05-14T00:43:36.905Z,10.4600
2023-05-14T00:44:37.955Z,10.6729
2023-05-14T00:45:38.934Z,10.3143
2023-05-14T00:46:40.066Z,10.6048
2023-05-14T00:47:41.141Z,10.6429
2023-05-14T00:48:42.079Z,10.8934
2023-05-14T00:49:43.077Z,11.0097
2023-05-14T00:50:44.156Z,10.3520
2023-05-14T00:51:45.186Z,9.9541
2023-05-14T00:52:46.228Z,9.9900
2023-05-14T00:53:47.221Z,10.1592
2023-05-14T00:54:48.316Z,10.2126
2023-05-14T00:55:49.321Z,9.9140
2023-05-14T00:56:50.363Z,10.1243
2023-05-14T00:57:51.472Z,10.2822
2023-05-14T00:58:52.425Z,9.6874
2023-05-14T00:59:53.458Z,10.5485
2023-05-14T01:00:54.586Z,10.2595
2023-05-14T01:01:55.563Z,10.2325
2023-05-14T01:02:56.673Z,10.4899
2023-05-14T01:03:57.872Z,10.7068
2023-05-14T01:04:58.704Z,10.6213
2023-05-14T01:05:59.680Z,9.7919
2023-05-14T01:07:00.767Z,9.7898
2023-05-14T01:08:01.821Z,9.4648
2023-05-14T01:09:02.855Z,9.3964
2023-05-14T01:10:03.847Z,9.1784
2023-05-14T01:11:04.894Z,9.7748
2023-05-14T01:12:05.931Z,9.6877
2023-05-14T01:13:07.021Z,9.7040
2023-05-14T01:14:08.039Z,9.9152
2023-05-14T01:15:09.167Z,9.6894
2023-05-14T01:16:10.172Z,9.8744
2023-05-14T01:17:11.202Z,9.5381
2023-05-14T01:18:12.278Z,9.9488
2023-05-14T01:19:13.390Z,9.5887
2023-05-14T01:20:14.279Z,9.8555
2023-05-14T01:21:15.339Z,9.4692
2023-05-14T01:22:16.361Z,9.9291
2023-05-14T01:23:17.435Z,9.6767
2023-05-14T01:24:18.474Z,10.2025
2023-05-14T01:25:19.554Z,9.3149
2023-05-14T01:26:20.554Z,10.1987
2023-05-14T01:27:21.671Z,10.3105
2023-05-14T01:28:22.753Z,10.2063
2023-05-14T01:29:23.789Z,10.2700
2023-05-14T01:30:25.024Z,10.3133
2023-05-14T01:31:25.800Z,10.0450
2023-05-14T01:32:26.919Z,10.1689
2023-05-14T01:33:27.878Z,9.9338
2023-05-14T01:34:29.031Z,10.5139
2023-05-14T01:35:30.036Z,10.0728
2023-05-14T01:36:31.068Z,10.4577
2023-05-14T01:37:32.013Z,10.6561
2023-05-14T01:38:33.054Z,10.8701
2023-05-14T01:39:34.150Z,10.3326
2023-05-14T01:40:35.256Z,9.8497
2023-05-14T01:41:36.173Z,10.4690
2023-05-14T01:42:37.228Z,10.1911
2023-05-14T01:43:38.260Z,9.9235
2023-05-14T01:44:39.321Z,10.2892
2023-05-14T01:45:40.368Z,10.4791
2023-05-14T01:46:41.381Z,10.4795
2023-05-14T01:47:42.415Z,10.3076
2023-05-14T01:48:43.467Z,10.3641
2023-05-14T01:49:44.497Z,9.8419
2023-05-14T01:50:45.586Z,10.8682
2023-05-14T01:51:46.545Z,10.2870
2023-05-14T01:52:47.651Z,9.9660
2023-05-14T01:53:48.626Z,10.3101
2023-05-14T01:54:49.746Z,10.4733
2023-05-14T01:55:50.773Z,10.5668
2023-05-14T01:56:51.732Z,10.8486
2023-05-14T01:57:52.792Z,10.0172
2023-05-14T01:58:53.852Z,10.9394
2023-05-14T01:59:54.946Z,10.5191
2023-05-14T02:00:55.932Z,10.2151
2023-05-14T02:01:57.128Z,11.3134
2023-05-14T02:02:58.023Z,10.8686
2023-05-14T02:03:59.098Z,10.9462
2023-05-14T02:05:00.109Z,10.8695
2023-05-14T02:06:01.169Z,10.9803
2023-05-14T02:07:02.091Z,10.5322
2023-05-14T02:08:03.180Z,11.5616
2023-05-14T02:09:04.276Z,10.6965
2023-05-14T02:10:05.304Z,10.1776
2023-05-14T02:11:06.384Z,10.9819
2023-05-14T02:12:07.388Z,11.0262
2023-05-14T02:13:08.335Z,11.0583
2023-05-14T02:14:09.436Z,11.2077
2023-05-14T02:15:10.496Z,11.1093
2023-05-14T02:16:11.534Z,11.1855
2023-05-14T02:17:12.488Z,11.0502
2023-05-14T02:18:13.599Z,11.0100
2023-05-14T02:19:14.666Z,10.6323
2023-05-14T02:20:15.807Z,10.3264
2023-05-14T02:21:16.695Z,10.4831
2023-05-14T02:22:17.708Z,10.4145
2023-05-14T02:23:20.594Z,10.7667
2023-05-14T02:24:19.800Z,10.9986
2023-05-14T02:25:20.881Z,11.3141
2023-05-14T02:26:21.946Z,10.6552
2023-05-14T02:27:22.907Z,10.1828
2023-05-14T02:28:23.989Z,10.3327
2023-05-14T02:29:24.991Z,10.4441
2023-05-14T02:30:26.126Z,10.3247
2023-05-14T02:31:27.173Z,10.6096
2023-05-14T02:32:28.348Z,10.2110
2023-05-14T02:33:29.203Z,10.4391
2023-05-14T02:34:30.170Z,10.0187
2023-05-14T02:35:31.280Z,9.9407
2023-05-14T02:36:32.291Z,10.3253
2023-05-14T02:37:33.253Z,10.4538
2023-05-14T02:38:34.352Z,9.5324
2023-05-14T02:39:35.348Z,9.7105
2023-05-14T02:40:36.469Z,9.8009
2023-05-14T02:41:37.517Z,9.7564
2023-05-14T02:42:38.520Z,10.2348
2023-05-14T02:43:39.496Z,9.4185
2023-05-14T02:44:40.655Z,9.8349
2023-05-14T02:45:41.621Z,10.0665
2023-05-14T02:46:42.745Z,9.6136
2023-05-14T02:47:43.750Z,9.6167
2023-05-14T02:48:44.773Z,9.8072
2023-05-14T02:49:45.739Z,10.2624
2023-05-14T02:50:46.834Z,9.9318
2023-05-14T02:51:47.853Z,9.8441
2023-05-14T02:52:48.860Z,9.5944
2023-05-14T02:53:49.911Z,9.9255
2023-05-14T02:54:50.919Z,10.3747
2023-05-14T02:55:52.059Z,9.7617
2023-05-14T02:56:53.062Z,10.1780
2023-05-14T02:57:54.153Z,10.1554
2023-05-14T02:58:55.109Z,9.5856
2023-05-14T02:59:56.114Z,10.1652
2023-05-14T03:00:57.224Z,9.9839
2023-05-14T03:01:58.341Z,9.9711
2023-05-14T03:02:59.259Z,10.1073
2023-05-14T03:04:00.305Z,10.3754
2023-05-14T03:05:01.295Z,10.2746
2023-05-14T03:06:02.435Z,10.1701
2023-05-14T03:07:03.436Z,10.0940
2023-05-14T03:08:04.416Z,9.8511
2023-05-14T03:09:05.477Z,10.1195
2023-05-14T03:10:06.470Z,9.7153
2023-05-14T03:11:07.546Z,10.1063
2023-05-14T03:12:08.728Z,9.8397
2023-05-14T03:13:09.614Z,9.3326
2023-05-14T03:14:10.634Z,10.0610
2023-05-14T03:15:11.696Z,10.5569
2023-05-14T03:16:12.755Z,10.3030
2023-05-14T03:17:13.813Z,10.3897
2023-05-14T03:18:14.790Z,10.0617
2023-05-14T03:19:15.885Z,9.9860
2023-05-14T03:20:16.839Z,9.9110
2023-05-14T03:21:17.987Z,10.4475
2023-05-14T03:22:18.976Z,9.6869
2023-05-14T03:23:20.017Z,10.1131
2023-05-14T03:24:20.971Z,10.6243
2023-05-14T03:25:22.030Z,10.5175
2023-05-14T03:26:23.108Z,9.7824
2023-05-14T03:27:24.149Z,9.9829
2023-05-14T03:28:25.134Z,9.9580
2023-05-14T03:29:26.147Z,9.9203
2023-05-14T03:30:27.285Z,10.2543
2023-05-14T03:31:28.281Z,9.9835
2023-05-14T03:32:29.360Z,9.8222
2023-05-14T03:33:30.310Z,9.7409
2023-05-14T03:34:31.355Z,9.8121
2023-05-14T03:35:32.378Z,9.9615
2023-05-14T03:36:33.496Z,9.5980
2023-05-14T03:37:34.506Z,9.7356
2023-05-14T03:38:35.592Z,10.0550
2023-05-14T03:39:36.548Z,10.1974
2023-05-14T03:40:37.669Z,10.2722
2023-05-14T03:41:38.648Z,9.5650
2023-05-14T03:42:39.793Z,10.6469
2023-05-14T03:43:40.720Z,10.2817
2023-05-14T03:44:41.713Z,10.3748
2023-05-14T03:45:42.828Z,10.3521
2023-05-14T03:46:43.843Z,9.9122
2023-05-14T03:47:44.869Z,10.4933
2023-05-14T03:48:45.915Z,9.7810
2023-05-14T03:49:46.894Z,9.9125
2023-05-14T03:50:48.027Z,10.3595
2023-05-14T03:51:49.019Z,10.1656
2023-05-14T03:52:50.075Z,10.3564
2023-05-14T03:53:51.055Z,10.1677
2023-05-14T03:54:52.093Z,9.9107
2023-05-14T03:55:53.112Z,9.9779
2023-05-14T03:56:54.276Z,9.2641
2023-05-14T03:57:55.273Z,9.0518
2023-05-14T03:58:56.266Z,9.3576
2023-05-14T03:59:57.268Z,10.0017
2023-05-14T04:00:58.349Z,9.8415
2023-05-14T04:01:59.393Z,10.3591
2023-05-14T04:03:00.607Z,9.6354
2023-05-14T04:04:01.616Z,9.7002
2023-05-14T04:05:02.454Z,9.3203
2023-05-14T04:06:03.578Z,9.9044
2023-05-14T04:07:04.582Z,10.0164
2023-05-14T04:08:05.647Z,10.0361
2023-05-14T04:09:06.598Z,9.5065
2023-05-14T04:10:07.686Z,9.8833
2023-05-14T04:11:08.710Z,10.1894
2023-05-14T04:12:09.780Z,9.5082
2023-05-14T04:13:10.909Z,9.6424
2023-05-14T04:14:11.807Z,9.3437
2023-05-14T04:15:12.924Z,9.3938
2023-05-14T04:16:14.024Z,9.8786
2023-05-14T04:17:14.979Z,9.6533
2023-05-14T04:18:16.073Z,9.5988
2023-05-14T04:19:17.151Z,9.9711
2023-05-14T04:20:18.021Z,10.0144
2023-05-14T04:21:19.057Z,9.8023
2023-05-14T04:22:20.156Z,10.0423
2023-05-14T04:23:21.216Z,9.3479
2023-05-14T04:24:22.206Z,9.4436
2023-05-14T04:25:23.225Z,9.4583
2023-05-14T04:26:24.349Z,9.7329
2023-05-14T04:27:25.351Z,9.6229
2023-05-14T04:28:26.391Z,9.3930
2023-05-14T04:29:27.422Z,9.8066
2023-05-14T04:30:28.434Z,9.2748
2023-05-14T04:31:29.591Z,10.5556
2023-05-14T04:32:30.642Z,9.7788
2023-05-14T04:33:31.587Z,9.8898
2023-05-14T04:34:32.665Z,9.8167
2023-05-14T04:35:33.710Z,9.3895
2023-05-14T04:36:34.664Z,9.5328
2023-05-14T04:37:35.786Z,9.7547
2023-05-14T04:38:36.836Z,9.7465
2023-05-14T04:39:37.784Z,9.9230
2023-05-14T04:40:38.824Z,9.8364
2023-05-14T04:41:39.872Z,9.7842
2023-05-14T04:42:40.981Z,9.3051
2023-05-14T04:43:41.985Z,9.2734
2023-05-14T04:44:42.986Z,9.6685
2023-05-14T04:45:44.068Z,9.9047
2023-05-14T04:46:45.076Z,9.5920
2023-05-14T04:47:46.225Z,9.4663
2023-05-14T04:48:47.229Z,9.6343
2023-05-14T04:49:48.141Z,9.1318
2023-05-14T04:50:49.188Z,9.8159
2023-05-14T04:51:50.228Z,9.7500
2023-05-14T04:52:51.352Z,9.3810
2023-05-14T04:53:52.382Z,9.1616
2023-05-14T04:54:53.358Z,9.7335
2023-05-14T04:55:54.383Z,9.5632
2023-05-14T04:56:55.421Z,9.1514
2023-05-14T04:57:56.502Z,9.0430
2023-05-14T04:58:57.533Z,9.7538
2023-05-14T04:59:58.548Z,9.4606
2023-05-14T05:00:59.714Z,8.7134
2023-05-14T05:02:00.629Z,9.0147
2023-05-14T05:03:01.800Z,8.5541
2023-05-14T05:04:02.764Z,9.0459
2023-05-14T05:05:03.742Z,9.2443
2023-05-14T05:06:04.800Z,8.5053
2023-05-14T05:07:05.869Z,8.3567
2023-05-14T05:08:06.947Z,8.5833
2023-05-14T05:09:07.939Z,8.4440
2023-05-14T05:10:08.995Z,8.5931
2023-05-14T05:11:10.014Z,8.3579
2023-05-14T05:12:11.024Z,8.9270
2023-05-14T05:13:12.090Z,9.0542
2023-05-14T05:14:13.149Z,8.7841
2023-05-14T05:15:14.215Z,8.7912
2023-05-14T05:16:15.325Z,9.1071
2023-05-14T05:17:16.289Z,8.5718
2023-05-14T05:18:17.360Z,8.9963
2023-05-14T05:19:19.730Z,8.6697
2023-05-14T05:20:19.392Z,8.6102
2023-05-14T05:21:20.421Z,8.3570
2023-05-14T05:22:21.510Z,8.6498
2023-05-14T05:23:22.552Z,8.7122
2023-05-14T05:24:23.590Z,9.1970
2023-05-14T05:25:24.552Z,9.1370
2023-05-14T05:26:25.617Z,8.3212
2023-05-14T05:27:26.658Z,8.9090
2023-05-14T05:28:27.757Z,8.9866
2023-05-14T05:29:28.841Z,8.8246
2023-05-14T05:30:29.793Z,8.9755
2023-05-14T05:31:30.854Z,9.0402
2023-05-14T05:32:31.936Z,8.9813
2023-05-14T05:33:32.973Z,8.9845
2023-05-14T05:34:34.036Z,8.2962
2023-05-14T05:35:34.952Z,8.6911
2023-05-14T05:36:35.997Z,9.0818
2023-05-14T05:37:37.038Z,8.9812
2023-05-14T05:38:38.161Z,9.1461
2023-05-14T05:39:39.179Z,9.0830
2023-05-14T05:40:40.183Z,8.8550
2023-05-14T05:41:41.205Z,8.9710
2023-05-14T05:42:42.233Z,8.5375
2023-05-14T05:43:43.297Z,9.2727
2023-05-14T05:44:44.386Z,8.9848
2023-05-14T05:45:45.352Z,9.1713
2023-05-14T05:46:46.498Z,8.6387
2023-05-14T05:47:47.531Z,8.7942
2023-05-14T05:48:48.492Z,9.1109
2023-05-14T05:49:49.580Z,9.5928
2023-05-14T05:50:50.547Z,8.8243
2023-05-14T05:51:51.653Z,8.6936
2023-05-14T05:52:52.638Z,9.5730
2023-05-14T05:53:53.704Z,9.1891
2023-05-14T05:54:54.730Z,9.3133
2023-05-14T05:55:55.746Z,9.1552
2023-05-14T05:56:56.870Z,8.9138
2023-05-14T05:57:57.847Z,9.1928
2023-05-14T05:58:58.938Z,8.9056
2023-05-14T05:59:59.996Z,9.0311
2023-05-14T06:01:00.957Z,9.4567
2023-05-14T06:02:02.028Z,10.2292
2023-05-14T06:03:03.113Z,10.0786
2023-05-14T06:04:04.086Z,9.5023
2023-05-14T06:05:05.138Z,9.7994
2023-05-14T06:06:06.099Z,9.5199
2023-05-14T06:07:07.234Z,10.3043
2023-05-14T06:08:08.190Z,9.8883
2023-05-14T06:09:09.260Z,10.0312
2023-05-14T06:10:10.283Z,10.0797
2023-05-14T06:11:11.299Z,9.7901
2023-05-14T06:12:12.299Z,9.4094
2023-05-14T06:13:13.404Z,9.3393
2023-05-14T06:14:14.541Z,9.2749
2023-05-14T06:15:15.532Z,9.5188
2023-05-14T06:16:16.537Z,9.8293
2023-05-14T06:17:17.560Z,9.7867
2023-05-14T06:18:18.592Z,9.5259
2023-05-14T06:19:19.711Z,9.4906
2023-05-14T06:20:20.816Z,9.7631
2023-05-14T06:21:21.670Z,9.7098
2023-05-14T06:22:22.746Z,9.3008
2023-05-14T06:23:23.758Z,9.8139
2023-05-14T06:24:24.878Z,8.8871
2023-05-14T06:25:25.920Z,9.2923
2023-05-14T06:26:26.969Z,8.8806
2023-05-14T06:27:27.921Z,9.2326
2023-05-14T06:28:29.014Z,9.5812
2023-05-14T06:29:30.073Z,9.5456
2023-05-14T06:30:31.001Z,9.4592
2023-05-14T06:31:32.013Z,9.6016
2023-05-14T06:32:33.045Z,9.9261
2023-05-14T06:33:34.082Z,9.3253
2023-05-14T06:34:35.183Z,9.5482
2023-05-14T06:35:36.153Z,9.8232
2023-05-14T06:36:37.193Z,9.8542
2023-05-14T06:37:38.217Z,9.4155
2023-05-14T06:38:39.273Z,9.6248
2023-05-14T06:39:40.299Z,10.0220
2023-05-14T06:40:41.382Z,10.0570
2023-05-14T06:41:42.354Z,10.4740
2023-05-14T06:42:43.420Z,9.9070
2023-05-14T06:43:44.433Z,10.1242
2023-05-14T06:44:45.542Z,10.6728
2023-05-14T06:45:46.541Z,10.6815
2023-05-14T06:46:47.564Z,10.1517
2023-05-14T06:47:48.619Z,10.3691
2023-05-14T06:48:49.693Z,10.6241
2023-05-14T06:49:50.714Z,10.6994
2023-05-14T06:50:51.771Z,10.2707
2023-05-14T06:51:52.806Z,10.1948
2023-05-14T06:52:53.831Z,11.0307
2023-05-14T06:53:54.838Z,10.8645
2023-05-14T06:54:55.879Z,11.0078
2023-05-14T06:55:56.939Z,11.0312
2023-05-14T06:56:58.009Z,10.9955
2023-05-14T06:57:59.006Z,11.0528
2023-05-14T06:59:00.054Z,11.5327
2023-05-14T07:00:03.262Z,11.3595
2023-05-14T07:01:02.172Z,11.1533
2023-05-14T07:02:03.189Z,10.9610
2023-05-14T07:03:04.237Z,11.7294
2023-05-14T07:04:05.237Z,12.4544
2023-05-14T07:05:06.273Z,12.1112
2023-05-14T07:06:07.323Z,11.7051
2023-05-14T07:07:08.374Z,11.4500
2023-05-14T07:08:09.373Z,12.0136
2023-05-14T07:09:10.416Z,11.9015
2023-05-14T07:10:11.427Z,11.2450
2023-05-14T07:11:12.517Z,11.5696
2023-05-14T07:12:13.516Z,11.5738
2023-05-14T07:13:14.550Z,12.0116
2023-05-14T07:14:15.576Z,11.6472
2023-05-14T07:15:16.640Z,11.2765
2023-05-14T07:16:17.709Z,11.3460
2023-05-14T07:17:18.854Z,10.8670
2023-05-14T07:18:19.712Z,11.5022
2023-05-14T07:19:20.771Z,11.3107
2023-05-14T07:20:22.031Z,11.4111
2023-05-14T07:21:22.905Z,10.9604
2023-05-14T07:22:23.879Z,11.3687
2023-05-14T07:23:24.933Z,10.8425
2023-05-14T07:24:25.947Z,10.9498
2023-05-14T07:25:26.995Z,9.7523
2023-05-14T07:26:28.041Z,10.6785
2023-05-14T07:27:29.078Z,11.0106
2023-05-14T07:28:30.114Z,11.2051
2023-05-14T07:29:31.115Z,10.8297
2023-05-14T07:30:32.210Z,10.6041
2023-05-14T07:31:33.270Z,11.1835
2023-05-14T07:32:34.283Z,10.4683
2023-05-14T07:33:35.278Z,10.5178
2023-05-14T07:34:36.324Z,10.4840
2023-05-14T07:35:37.314Z,10.2077
2023-05-14T07:36:38.410Z,10.9221
2023-05-14T07:37:39.433Z,10.9852
2023-05-14T07:38:40.456Z,11.6410
2023-05-14T07:39:41.488Z,11.4272
2023-05-14T07:40:42.528Z,9.9746
2023-05-14T07:41:43.641Z,10.3923
2023-05-14T07:42:44.626Z,10.7256
2023-05-14T07:43:45.606Z,10.3614
2023-05-14T07:44:46.651Z,11.0258
2023-05-14T07:45:47.695Z,10.6549
2023-05-14T07:46:48.772Z,10.1558
2023-05-14T07:47:49.803Z,9.4166
2023-05-14T07:48:50.818Z,9.0373
2023-05-14T07:49:51.816Z,9.6807
2023-05-14T07:50:52.860Z,9.5249
2023-05-14T07:51:53.877Z,10.2497
2023-05-14T07:52:55.026Z,10.4377
2023-05-14T07:53:55.926Z,9.7661
2023-05-14T07:54:56.977Z,10.1869
2023-05-14T07:55:58.225Z,9.9050
2023-05-14T07:56:59.082Z,10.1065
2023-05-14T07:58:00.158Z,10.1056
2023-05-14T07:59:01.115Z,9.7526
2023-05-14T08:00:02.156Z,9.5708
2023-05-14T08:01:03.179Z,9.4180
2023-05-14T08:02:04.276Z,9.8412
2023-05-14T08:03:05.456Z,10.2128
2023-05-14T08:04:06.384Z,9.9572
2023-05-14T08:05:07.317Z,10.0989
2023-05-14T08:06:08.298Z,9.9380
2023-05-14T08:07:09.411Z,9.3958
2023-05-14T08:08:10.395Z,9.4325
2023-05-14T08:09:11.395Z,9.6064
2023-05-14T08:10:12.489Z,9.7085
2023-05-14T08:11:13.477Z,9.1640
2023-05-14T08:12:14.552Z,9.9738
2023-05-14T08:13:15.576Z,10.2876
2023-05-14T08:14:16.575Z,10.7547
2023-05-14T08:15:17.623Z,10.9910
2023-05-14T08:16:18.660Z,10.1482
2023-05-14T08:17:19.753Z,10.8707
2023-05-14T08:18:20.721Z,11.1528
2023-05-14T08:19:21.797Z,10.8179
2023-05-14T08:20:23.058Z,11.7250
2023-05-14T08:21:23.836Z,11.2679
2023-05-14T08:22:24.899Z,11.2664
2023-05-14T08:23:25.985Z,11.4129
2023-05-14T08:24:26.899Z,11.0977
2023-05-14T08:25:27.933Z,10.7072
2023-05-14T08:26:28.980Z,10.4171
2023-05-14T08:27:30.056Z,9.9582
2023-05-14T08:28:31.119Z,11.0088
2023-05-14T08:29:32.097Z,10.4277
2023-05-14T08:30:33.162Z,10.4697
2023-05-14T08:31:34.155Z,10.6344
2023-05-14T08:32:35.244Z,10.6651
2023-05-14T08:33:36.264Z,10.6775
2023-05-14T08:34:37.297Z,10.0474
2023-05-14T08:35:38.321Z,10.3100
2023-05-14T08:36:39.388Z,9.3477
2023-05-14T08:37:40.383Z,9.8440
2023-05-14T08:38:41.433Z,9.8980
2023-05-14T08:39:42.582Z,9.5822
2023-05-14T08:40:43.497Z,10.0096
2023-05-14T08:41:44.543Z,10.5758
2023-05-14T08:42:45.611Z,10.4443
2023-05-14T08:43:46.616Z,10.7856
2023-05-14T08:44:47.638Z,10.8353
2023-05-14T08:45:48.660Z,9.4632
2023-05-14T08:46:49.677Z,9.8221
2023-05-14T08:47:50.991Z,9.1751
2023-05-14T08:48:51.828Z,8.5827
2023-05-14T08:49:52.885Z,9.0779
2023-05-14T08:50:53.885Z,8.6499
2023-05-14T08:51:54.895Z,8.0577
2023-05-14T08:52:55.885Z,8.6663
2023-05-14T08:53:57.004Z,9.0268
2023-05-14T08:54:58.005Z,8.6013
2023-05-14T08:55:59.064Z,8.3896
2023-05-14T08:57:00.046Z,8.4863
2023-05-14T08:58:01.109Z,9.3572
2023-05-14T08:59:02.266Z,9.9777
2023-05-14T09:00:03.299Z,9.3630
2023-05-14T09:01:04.399Z,9.0662
2023-05-14T09:02:26.259Z,9.5195
2023-05-14T09:03:06.460Z,10.0988
2023-05-14T09:04:07.468Z,10.1398
2023-05-14T09:05:08.571Z,9.0899
2023-05-14T09:06:09.545Z,9.5528
2023-05-14T09:07:10.532Z,9.2065
2023-05-14T09:08:11.571Z,9.7911
2023-05-14T09:09:12.650Z,9.2766
2023-05-14T09:10:13.668Z,9.4244
2023-05-14T09:11:14.755Z,9.8159
2023-05-14T09:12:15.733Z,9.1525
2023-05-14T09:13:16.757Z,8.7248
2023-05-14T09:14:17.753Z,8.9705
2023-05-14T09:15:18.996Z,9.0044
2023-05-14T09:16:20.057Z,8.5741
2023-05-14T09:17:21.052Z,8.0640
2023-05-14T09:18:21.996Z,8.1700
2023-05-14T09:19:23.155Z,7.9769
2023-05-14T09:20:24.286Z,7.6212
2023-05-14T09:21:25.164Z,8.1752
2023-05-14T09:22:26.135Z,8.2302
2023-05-14T09:23:27.289Z,7.7022
2023-05-14T09:24:28.214Z,8.0989
2023-05-14T09:25:29.390Z,7.9185
2023-05-14T09:26:30.343Z,7.9721
2023-05-14T09:27:31.331Z,8.1108
2023-05-14T09:28:32.354Z,8.2070
2023-05-14T09:29:33.443Z,8.0559
2023-05-14T09:30:34.506Z,8.2147
2023-05-14T09:31:35.568Z,8.6246
2023-05-14T09:32:36.512Z,7.7790
2023-05-14T09:33:37.663Z,6.4896
2023-05-14T09:34:38.581Z,7.1989
2023-05-14T09:35:39.713Z,7.0109
2023-05-14T09:36:40.715Z,6.9717
2023-05-14T09:37:41.710Z,7.6792
2023-05-14T09:38:42.714Z,6.9870
2023-05-14T09:39:43.842Z,7.0978
2023-05-14T09:40:44.929Z,7.1217
2023-05-14T09:41:45.917Z,6.9255
2023-05-14T09:42:46.869Z,7.2107
2023-05-14T09:43:48.003Z,7.0964
2023-05-14T09:44:48.973Z,7.1984
2023-05-14T09:45:50.080Z,7.3244
2023-05-14T09:46:51.108Z,6.8613
2023-05-14T09:47:52.181Z,7.2805
2023-05-14T09:48:53.095Z,6.7662
2023-05-14T09:49:54.175Z,7.2687
2023-05-14T09:50:55.214Z,7.0992
2023-05-14T09:51:56.282Z,7.5416
2023-05-14T09:52:57.293Z,7.6809
2023-05-14T09:53:58.279Z,7.5701
2023-05-14T09:54:59.310Z,7.5388
2023-05-14T09:56:00.414Z,7.9757
2023-05-14T09:57:01.413Z,7.9137
2023-05-14T09:58:02.450Z,8.4065
2023-05-14T09:59:03.494Z,8.5536
2023-05-14T10:00:04.527Z,7.8902
2023-05-14T10:01:05.676Z,7.7492
2023-05-14T10:02:06.656Z,7.9787
2023-05-14T10:03:07.701Z,7.6698
2023-05-14T10:04:08.734Z,7.6586
2023-05-14T10:05:09.775Z,7.7065
2023-05-14T10:06:10.794Z,7.4217
2023-05-14T10:07:11.791Z,6.9436
2023-05-14T10:08:12.824Z,6.5654
2023-05-14T10:09:14.056Z,6.1542
2023-05-14T10:10:14.860Z,6.9056
2023-05-14T10:11:16.006Z,6.1511
2023-05-14T10:12:17.072Z,6.4483
2023-05-14T10:13:17.982Z,5.9722
2023-05-14T10:14:19.020Z,6.0563
2023-05-14T10:15:20.029Z,5.5563
2023-05-14T10:16:21.169Z,5.6253
2023-05-14T10:17:22.149Z,5.2332
2023-05-14T10:18:23.174Z,5.2547
2023-05-14T10:19:24.342Z,5.4260
2023-05-14T10:20:25.482Z,6.0303
2023-05-14T10:21:26.359Z,5.7847
2023-05-14T10:22:27.370Z,5.9402
2023-05-14T10:23:28.311Z,5.7630
2023-05-14T10:24:29.353Z,4.9477
2023-05-14T10:25:30.453Z,5.0561
2023-05-14T10:26:31.527Z,5.0738
2023-05-14T10:27:32.510Z,5.4625
2023-05-14T10:28:33.531Z,5.9065
2023-05-14T10:29:34.573Z,5.0370
2023-05-14T10:30:35.593Z,5.1139
2023-05-14T10:31:36.850Z,4.7964
2023-05-14T10:32:37.730Z,5.0245
2023-05-14T10:33:38.745Z,5.3234
2023-05-14T10:34:39.691Z,4.1312
2023-05-14T10:35:40.752Z,3.6964
2023-05-14T10:36:41.789Z,3.5969
2023-05-14T10:37:42.897Z,4.0910
2023-05-14T10:38:43.898Z,4.2268
2023-05-14T10:39:44.872Z,4.6989
2023-05-14T10:40:45.905Z,4.2841
2023-05-14T10:41:46.953Z,4.5652
2023-05-14T10:42:48.031Z,4.5720
2023-05-14T10:43:49.117Z,4.0275
2023-05-14T10:44:50.032Z,3.7547
2023-05-14T10:45:51.084Z,4.0072
2023-05-14T10:46:52.170Z,3.9473
2023-05-14T10:47:53.272Z,3.7667
2023-05-14T10:48:54.294Z,4.7952
2023-05-14T10:49:55.129Z,4.7997
2023-05-14T10:50:56.192Z,4.7892
2023-05-14T10:51:57.236Z,4.3281
2023-05-14T10:52:58.336Z,4.6292
2023-05-14T10:53:59.294Z,4.9437
2023-05-14T10:55:02.879Z,5.1117
2023-05-14T10:56:01.377Z,5.1632
2023-05-14T10:57:02.389Z,4.9941
2023-05-14T10:58:03.456Z,5.1652
2023-05-14T10:59:04.463Z,4.8076
2023-05-14T11:00:05.482Z,5.1024
2023-05-14T11:01:06.553Z,5.1077
2023-05-14T11:02:07.724Z,5.2105
2023-05-14T11:03:08.675Z,5.0328
2023-05-14T11:04:09.675Z,4.8249
2023-05-14T11:05:10.645Z,4.8399
2023-05-14T11:06:11.691Z,5.0857
2023-05-14T11:07:12.690Z,5.2495
2023-05-14T11:08:13.798Z,5.4439
2023-05-14T11:09:14.797Z,5.7585
2023-05-14T11:10:15.797Z,4.9848
2023-05-14T11:11:16.818Z,5.1970
2023-05-14T11:12:17.852Z,5.1040
2023-05-14T11:13:18.981Z,5.9588
2023-05-14T11:14:19.955Z,5.3060
2023-05-14T11:15:20.977Z,5.0184
2023-05-14T11:16:23.734Z,4.5873
2023-05-14T11:17:23.069Z,4.4454
2023-05-14T11:18:24.101Z,4.5237
2023-05-14T11:19:25.180Z,4.8791
2023-05-14T11:20:26.336Z,4.5415
2023-05-14T11:21:27.232Z,4.7719
2023-05-14T11:22:28.190Z,4.4408
2023-05-14T11:23:29.315Z,4.4799
2023-05-14T11:24:30.429Z,4.6849
2023-05-14T11:25:31.388Z,5.0767
2023-05-14T11:26:32.452Z,5.6375
2023-05-14T11:27:33.396Z,5.4893
2023-05-14T11:28:34.660Z,6.3409
2023-05-14T11:29:35.500Z,6.6539
2023-05-14T11:30:36.536Z,6.8626
2023-05-14T11:31:37.595Z,6.8618
2023-05-14T11:32:38.681Z,6.9225
2023-05-14T11:33:39.659Z,6.7572
2023-05-14T11:34:40.726Z,7.0015
2023-05-14T11:35:41.755Z,7.3243
2023-05-14T11:36:42.720Z,7.1543
2023-05-14T11:37:43.759Z,6.6506
2023-05-14T11:38:44.816Z,6.9403
2023-05-14T11:39:45.842Z,7.4661
2023-05-14T11:40:46.897Z,7.7398
2023-05-14T11:41:47.921Z,7.9966
2023-05-14T11:42:48.955Z,7.5941
2023-05-14T11:43:49.959Z,7.5295
2023-05-14T11:44:51.017Z,7.3014
2023-05-14T11:45:52.124Z,7.2235
2023-05-14T11:46:53.136Z,7.6727
2023-05-14T11:47:54.272Z,8.0512
2023-05-14T11:48:55.332Z,7.7814
2023-05-14T11:49:56.330Z,7.7275
2023-05-14T11:50:57.440Z,7.8414
2023-05-14T11:51:58.507Z,7.3592
2023-05-14T11:52:59.477Z,7.3036
2023-05-14T11:54:00.482Z,7.6848
2023-05-14T11:55:01.577Z,7.8239
2023-05-14T11:56:02.598Z,7.6794
2023-05-14T11:57:03.629Z,7.1438
2023-05-14T11:58:04.593Z,7.2725
2023-05-14T11:59:05.708Z,7.5614
2023-05-14T12:00:06.755Z,7.2923
2023-05-14T12:01:07.833Z,8.0462
2023-05-14T12:02:08.841Z,7.5803
2023-05-14T12:03:09.910Z,7.0891
2023-05-14T12:04:10.992Z,7.3769
2023-05-14T12:05:11.859Z,6.7396
2023-05-14T12:06:12.934Z,6.6816
2023-05-14T12:07:14.030Z,6.6819
2023-05-14T12:08:14.958Z,6.7985
2023-05-14T12:09:16.028Z,6.1426
2023-05-14T12:10:17.084Z,5.2489
2023-05-14T12:11:18.152Z,4.6987
2023-05-14T12:12:19.190Z,3.8085
2023-05-14T12:13:20.204Z,3.1802
2023-05-14T12:14:21.228Z,2.9021
2023-05-14T12:15:22.263Z,2.8659
2023-05-14T12:16:23.446Z,3.4033
2023-05-14T12:17:24.519Z,3.3450
2023-05-14T12:18:25.486Z,3.5688
2023-05-14T12:19:26.510Z,4.4803
2023-05-14T12:20:27.536Z,4.3149
2023-05-14T12:21:28.548Z,4.1204
2023-05-14T12:22:29.616Z,4.4586
2023-05-14T12:23:30.613Z,4.6983
2023-05-14T12:24:31.629Z,4.4037
2023-05-14T12:25:32.613Z,4.2032
2023-05-14T12:26:33.755Z,4.3526
2023-05-14T12:27:34.806Z,4.6241
2023-05-14T12:28:38.300Z,4.6041
2023-05-14T12:29:36.824Z,4.7023
2023-05-14T12:30:37.936Z,5.0040
2023-05-14T12:31:38.981Z,5.6943
2023-05-14T12:32:40.094Z,5.4940